createdAt,value
2019-03-31T00:00:19.158Z,2.17
2019-03-31T00:02:47.367Z,2.20
2019-03-31T00:05:15.474Z,2.27
2019-03-31T00:07:43.509Z,2.40
2019-03-31T00:10:12.129Z,2.00
2019-03-31T00:12:40.143Z,2.10
2019-03-31T00:15:08.345Z,2.05
2019-03-31T00:17:36.513Z,2.30
2019-03-31T00:20:05.491Z,2.45
2019-03-31T00:22:34.112Z,2.05
2019-03-31T00:25:02.192Z,2.27
2019-03-31T00:27:30.658Z,2.20
2019-03-31T00:29:58.865Z,2.20
2019-03-31T00:32:27.536Z,2.12
2019-03-31T00:34:55.917Z,2.22
2019-03-31T00:37:24.002Z,2.30
2019-03-31T00:39:52.022Z,2.17
2019-03-31T00:42:20.090Z,2.30
2019-03-31T00:44:48.198Z,2.30
2019-03-31T00:47:16.358Z,2.67
2019-03-31T00:49:44.436Z,2.27
2019-03-31T00:52:12.934Z,2.62
2019-03-31T00:54:41.084Z,2.33
2019-03-31T00:57:09.165Z,2.10
2019-03-31T00:59:37.625Z,2.00
2019-03-31T01:02:10.289Z,2.00
2019-03-31T01:04:38.742Z,2.00
2019-03-31T01:07:07.106Z,2.12
2019-03-31T01:09:35.337Z,2.30
2019-03-31T01:12:04.285Z,2.35
2019-03-31T01:14:32.523Z,2.20
2019-03-31T01:17:02.083Z,2.35
2019-03-31T01:19:30.209Z,2.12
2019-03-31T01:21:58.640Z,2.37
2019-03-31T01:24:27.477Z,1.95
2019-03-31T01:26:55.413Z,2.05
2019-03-31T01:29:23.719Z,2.17
2019-03-31T01:31:53.775Z,2.00
2019-03-31T01:34:22.286Z,2.22
2019-03-31T01:36:50.308Z,2.80
2019-03-31T01:39:18.854Z,2.20
2019-03-31T01:41:46.937Z,2.33
2019-03-31T01:44:15.103Z,2.10
2019-03-31T01:46:43.206Z,2.75
2019-03-31T01:49:11.551Z,2.70
2019-03-31T01:51:39.902Z,2.50
2019-03-31T01:54:07.943Z,2.02
2019-03-31T01:56:36.402Z,2.30
2019-03-31T01:59:04.486Z,2.10
2019-03-31T02:01:32.670Z,2.25
2019-03-31T02:04:01.086Z,2.42
2019-03-31T02:06:29.195Z,2.00
2019-03-31T02:08:57.626Z,2.47
2019-03-31T02:11:26.248Z,2.08
2019-03-31T02:13:55.832Z,2.52
2019-03-31T02:16:23.942Z,2.52
2019-03-31T02:18:52.049Z,2.30
2019-03-31T02:21:20.305Z,2.00
2019-03-31T02:23:48.562Z,2.30
2019-03-31T02:26:17.128Z,2.50
2019-03-31T02:28:45.220Z,2.40
2019-03-31T02:31:13.280Z,1.80
2019-03-31T02:33:42.161Z,2.72
2019-03-31T02:36:11.021Z,2.67
2019-03-31T02:38:39.643Z,2.20
2019-03-31T02:41:07.803Z,2.27
2019-03-31T02:43:36.061Z,2.40
2019-03-31T02:46:04.076Z,2.42
2019-03-31T02:48:32.325Z,2.05
2019-03-31T02:51:00.497Z,2.10
2019-03-31T02:53:28.577Z,2.70
2019-03-31T02:55:57.062Z,2.08
2019-03-31T02:58:25.984Z,2.40
2019-03-31T03:00:54.473Z,2.12
2019-03-31T03:03:22.539Z,2.60
2019-03-31T03:05:50.716Z,2.75
2019-03-31T03:08:19.340Z,2.20
2019-03-31T03:10:53.302Z,2.30
2019-03-31T03:13:24.614Z,2.40
2019-03-31T03:16:20.311Z,2.87
2019-03-31T03:18:48.935Z,2.50
2019-03-31T03:21:17.125Z,2.20
2019-03-31T03:23:45.238Z,2.65
2019-03-31T03:26:13.641Z,2.33
2019-03-31T03:28:41.931Z,2.47
2019-03-31T03:31:15.990Z,2.15
2019-03-31T03:33:40.981Z,1.80
2019-03-31T03:36:09.106Z,2.10
2019-03-31T03:38:37.497Z,2.30
2019-03-31T03:41:05.602Z,2.40
2019-03-31T03:43:33.982Z,3.08
2019-03-31T03:46:02.192Z,2.25
2019-03-31T03:48:30.288Z,2.15
2019-03-31T03:50:58.423Z,2.05
2019-03-31T03:53:26.483Z,2.05
2019-03-31T03:55:54.643Z,2.20
2019-03-31T03:58:23.004Z,2.05
2019-03-31T04:00:51.177Z,2.55
2019-03-31T04:03:29.763Z,2.70
2019-03-31T04:05:50.293Z,2.67
2019-03-31T04:08:18.498Z,3.45
2019-03-31T04:11:24.952Z,3.08
2019-03-31T04:13:53.247Z,2.67
2019-03-31T04:16:21.738Z,2.62
2019-03-31T04:18:49.877Z,3.00
2019-03-31T04:21:17.970Z,2.62
2019-03-31T04:23:46.069Z,3.87
2019-03-31T04:26:14.131Z,3.15
2019-03-31T04:28:42.201Z,3.30
2019-03-31T04:31:10.294Z,2.83
2019-03-31T04:33:50.441Z,3.17
2019-03-31T04:36:08.326Z,3.27
2019-03-31T04:38:36.467Z,2.95
2019-03-31T04:41:04.511Z,2.60
2019-03-31T04:43:32.607Z,3.35
2019-03-31T04:46:00.849Z,2.80
2019-03-31T04:48:28.815Z,2.95
2019-03-31T04:50:57.226Z,2.90
2019-03-31T04:53:25.323Z,2.87
2019-03-31T04:55:53.393Z,2.62
2019-03-31T04:58:21.428Z,2.85
2019-03-31T05:00:49.558Z,3.17
2019-03-31T05:03:17.715Z,3.15
2019-03-31T05:05:45.767Z,3.42
2019-03-31T05:08:13.896Z,3.33
2019-03-31T05:10:42.678Z,3.33
2019-03-31T05:13:11.093Z,2.80
2019-03-31T05:15:39.172Z,2.35
2019-03-31T05:18:07.514Z,3.00
2019-03-31T05:20:35.664Z,2.42
2019-03-31T05:23:03.978Z,2.33
2019-03-31T05:25:32.077Z,2.70
2019-03-31T05:28:00.508Z,2.80
2019-03-31T05:30:28.907Z,3.12
2019-03-31T05:32:57.257Z,3.22
2019-03-31T05:35:27.004Z,3.47
2019-03-31T05:37:55.275Z,3.27
2019-03-31T05:40:23.309Z,3.55
2019-03-31T05:42:51.794Z,3.42
2019-03-31T05:45:20.189Z,3.80
2019-03-31T05:47:48.862Z,3.70
2019-03-31T05:50:17.257Z,3.50
2019-03-31T05:52:45.408Z,3.62
2019-03-31T05:55:13.876Z,4.53
2019-03-31T05:57:42.343Z,4.05
2019-03-31T06:00:10.570Z,3.70
2019-03-31T06:02:39.006Z,4.10
2019-03-31T06:05:07.435Z,3.50
2019-03-31T06:07:35.782Z,4.00
2019-03-31T06:10:04.247Z,3.62
2019-03-31T06:12:33.092Z,3.15
2019-03-31T06:15:01.205Z,3.85
2019-03-31T06:17:29.443Z,3.45
2019-03-31T06:19:57.982Z,3.83
2019-03-31T06:22:25.953Z,3.27
2019-03-31T06:24:53.959Z,3.67
2019-03-31T06:27:22.131Z,4.12
2019-03-31T06:29:50.201Z,4.40
2019-03-31T06:32:18.802Z,3.80
2019-03-31T06:34:48.002Z,4.62
2019-03-31T06:37:16.375Z,4.08
2019-03-31T06:39:44.642Z,5.37
2019-03-31T06:42:13.127Z,4.08
2019-03-31T06:44:41.571Z,4.95
2019-03-31T06:47:09.572Z,4.45
2019-03-31T06:49:38.003Z,4.35
2019-03-31T06:52:06.123Z,4.65
2019-03-31T06:54:34.378Z,4.40
2019-03-31T06:57:03.396Z,4.80
2019-03-31T06:59:32.074Z,3.90
2019-03-31T07:02:02.899Z,3.90
2019-03-31T07:04:30.058Z,3.60
2019-03-31T07:06:59.078Z,3.75
2019-03-31T07:09:27.374Z,4.37
2019-03-31T07:11:55.800Z,4.50
2019-03-31T07:14:24.590Z,3.77
2019-03-31T07:16:52.948Z,4.33
2019-03-31T07:19:21.112Z,4.30
2019-03-31T07:21:49.443Z,4.12
2019-03-31T07:24:17.869Z,4.22
2019-03-31T07:26:45.977Z,4.67
2019-03-31T07:29:14.070Z,4.47
2019-03-31T07:31:43.407Z,4.00
2019-03-31T07:34:11.744Z,4.03
2019-03-31T07:36:39.730Z,4.37
2019-03-31T07:39:07.939Z,3.98
2019-03-31T07:41:36.214Z,4.53
2019-03-31T07:44:04.563Z,4.22
2019-03-31T07:46:33.729Z,4.95
2019-03-31T07:49:02.066Z,4.50
2019-03-31T07:51:30.194Z,4.50
2019-03-31T07:53:58.605Z,3.85
2019-03-31T07:56:26.966Z,4.40
2019-03-31T07:58:55.144Z,4.72
2019-03-31T08:01:23.234Z,4.35
2019-03-31T08:03:51.602Z,4.78
2019-03-31T08:06:19.934Z,4.25
2019-03-31T08:08:49.245Z,5.37
2019-03-31T08:11:18.549Z,5.92
2019-03-31T08:13:47.030Z,5.65
2019-03-31T08:16:15.146Z,5.47
2019-03-31T08:18:43.342Z,5.30
2019-03-31T08:21:11.750Z,5.30
2019-03-31T08:23:40.108Z,5.78
2019-03-31T08:26:08.486Z,4.78
2019-03-31T08:28:36.510Z,4.92
2019-03-31T08:31:05.448Z,5.30
2019-03-31T08:33:33.402Z,6.12
2019-03-31T08:36:01.839Z,5.62
2019-03-31T08:38:30.539Z,6.42
2019-03-31T08:40:58.802Z,6.67
2019-03-31T08:43:27.717Z,6.60
2019-03-31T08:45:56.273Z,8.55
2019-03-31T08:48:24.381Z,8.33
2019-03-31T08:50:52.533Z,8.23
2019-03-31T08:53:21.259Z,7.95
2019-03-31T08:55:49.922Z,7.37
2019-03-31T08:58:18.655Z,7.40
2019-03-31T09:00:56.324Z,7.80
2019-03-31T09:03:24.554Z,6.87
2019-03-31T09:06:01.822Z,8.28
2019-03-31T09:08:22.750Z,7.10
2019-03-31T09:10:51.594Z,8.13
2019-03-31T09:13:19.718Z,7.42
2019-03-31T09:15:47.787Z,6.97
2019-03-31T09:18:16.634Z,7.03
2019-03-31T09:20:45.304Z,7.40
2019-03-31T09:23:13.383Z,8.60
2019-03-31T09:25:42.367Z,7.12
2019-03-31T09:28:10.644Z,8.08
2019-03-31T09:30:39.165Z,7.90
2019-03-31T09:33:07.385Z,7.85
2019-03-31T09:35:35.494Z,7.95
2019-03-31T09:38:03.961Z,8.75
2019-03-31T09:40:32.713Z,8.33
2019-03-31T09:43:01.066Z,8.33
2019-03-31T09:45:29.171Z,9.03
2019-03-31T09:47:59.398Z,8.15
2019-03-31T09:50:27.766Z,8.45
2019-03-31T09:52:56.250Z,8.75
2019-03-31T09:55:24.262Z,8.10
2019-03-31T09:57:52.370Z,7.87
2019-03-31T10:00:51.458Z,8.28
2019-03-31T10:03:22.145Z,8.10
2019-03-31T10:05:51.187Z,8.28
2019-03-31T10:08:22.004Z,7.95
2019-03-31T10:10:49.626Z,7.80
2019-03-31T10:13:19.718Z,7.75
2019-03-31T10:15:48.367Z,9.13
2019-03-31T10:18:18.229Z,7.55
2019-03-31T10:20:47.012Z,9.03
2019-03-31T10:23:16.466Z,8.28
2019-03-31T10:25:45.666Z,8.30
2019-03-31T10:28:16.665Z,8.20
2019-03-31T10:30:45.407Z,7.78
2019-03-31T10:33:14.179Z,7.37
2019-03-31T10:35:43.876Z,7.53
2019-03-31T10:38:12.672Z,7.22
2019-03-31T10:40:42.832Z,7.50
2019-03-31T10:43:12.142Z,7.75
2019-03-31T10:45:41.497Z,7.72
2019-03-31T10:48:20.305Z,6.90
2019-03-31T10:50:41.310Z,7.70
2019-03-31T10:53:10.885Z,6.60
2019-03-31T10:55:40.321Z,6.97
2019-03-31T10:58:09.210Z,6.97
2019-03-31T11:00:38.668Z,6.37
2019-03-31T11:03:07.895Z,6.25
2019-03-31T11:05:36.552Z,6.83
2019-03-31T11:08:06.166Z,5.83
2019-03-31T11:10:35.309Z,5.97
2019-03-31T11:13:04.200Z,6.60
2019-03-31T11:15:32.403Z,8.48
2019-03-31T11:18:01.337Z,5.60
2019-03-31T11:20:30.323Z,5.95
2019-03-31T11:23:05.031Z,6.37
2019-03-31T11:25:33.143Z,6.08
2019-03-31T11:28:01.693Z,5.72
2019-03-31T11:30:30.126Z,5.62
2019-03-31T11:32:58.658Z,6.20
2019-03-31T11:35:27.103Z,5.33
2019-03-31T11:37:55.402Z,5.50
2019-03-31T11:40:23.806Z,5.72
2019-03-31T11:42:52.850Z,5.90
2019-03-31T11:45:21.388Z,6.42
2019-03-31T11:47:49.543Z,4.97
2019-03-31T11:50:17.940Z,5.30
2019-03-31T11:52:46.077Z,5.53
2019-03-31T11:55:15.313Z,5.90
2019-03-31T11:57:44.357Z,6.28
2019-03-31T12:00:15.501Z,6.12
2019-03-31T12:02:45.237Z,5.87
2019-03-31T12:05:14.216Z,5.20
2019-03-31T12:07:47.213Z,5.50
2019-03-31T12:10:14.056Z,5.70
2019-03-31T12:12:42.216Z,5.58
2019-03-31T12:15:12.412Z,5.58
2019-03-31T12:17:41.119Z,5.92
2019-03-31T12:20:09.420Z,5.55
2019-03-31T12:22:37.854Z,5.67
2019-03-31T12:25:06.294Z,5.40
2019-03-31T12:27:35.080Z,5.50
2019-03-31T12:30:03.895Z,5.03
2019-03-31T12:32:32.439Z,5.35
2019-03-31T12:35:00.595Z,5.58
2019-03-31T12:37:41.549Z,6.47
2019-03-31T12:39:59.465Z,5.20
2019-03-31T12:42:27.508Z,5.78
2019-03-31T12:44:56.037Z,5.28
2019-03-31T12:47:25.277Z,4.50
2019-03-31T12:49:53.560Z,4.92
2019-03-31T12:52:21.697Z,4.67
2019-03-31T12:54:49.880Z,4.10
2019-03-31T12:57:18.049Z,3.58
2019-03-31T12:59:46.169Z,3.52
2019-03-31T13:02:14.298Z,3.35
2019-03-31T13:04:42.451Z,4.08
2019-03-31T13:07:14.921Z,4.87
2019-03-31T13:09:42.738Z,3.77
2019-03-31T13:12:10.736Z,3.72
2019-03-31T13:14:38.898Z,4.00
2019-03-31T13:17:07.350Z,4.53
2019-03-31T13:19:35.743Z,4.05
2019-03-31T13:22:03.952Z,4.67
2019-03-31T13:24:32.307Z,4.12
2019-03-31T13:27:00.488Z,4.22
2019-03-31T13:29:28.480Z,4.05
2019-03-31T13:31:56.874Z,4.83
2019-03-31T13:34:25.213Z,4.92
2019-03-31T13:36:53.769Z,5.60
2019-03-31T13:39:21.971Z,5.70
2019-03-31T13:41:50.102Z,4.50
2019-03-31T13:44:18.570Z,4.55
2019-03-31T13:46:46.712Z,4.45
2019-03-31T13:49:14.795Z,5.33
2019-03-31T13:51:42.792Z,5.62
2019-03-31T13:54:11.155Z,4.37
2019-03-31T13:56:39.941Z,6.15
2019-03-31T13:59:09.186Z,4.60
2019-03-31T14:01:37.725Z,4.90
2019-03-31T14:04:05.991Z,4.95
2019-03-31T14:06:34.135Z,6.15
2019-03-31T14:09:04.381Z,6.17
2019-03-31T14:11:32.542Z,5.90
2019-03-31T14:14:00.491Z,6.37
2019-03-31T14:16:29.185Z,6.40
2019-03-31T14:18:57.939Z,5.40
2019-03-31T14:21:26.172Z,6.53
2019-03-31T14:23:54.282Z,5.30
2019-03-31T14:26:22.695Z,4.80
2019-03-31T14:28:50.666Z,5.03
2019-03-31T14:31:18.671Z,5.28
2019-03-31T14:33:47.158Z,6.55
2019-03-31T14:36:15.592Z,6.83
2019-03-31T14:38:43.931Z,6.10
2019-03-31T14:41:11.967Z,6.45
2019-03-31T14:43:40.218Z,5.62
2019-03-31T14:46:08.310Z,6.83
2019-03-31T14:48:36.622Z,5.87
2019-03-31T14:51:04.881Z,5.85
2019-03-31T14:53:33.010Z,5.70
2019-03-31T14:56:01.020Z,5.50
2019-03-31T14:58:29.130Z,4.45
2019-03-31T15:00:57.291Z,5.08
2019-03-31T15:03:25.266Z,5.03
2019-03-31T15:05:54.563Z,6.25
2019-03-31T15:08:22.669Z,5.80
2019-03-31T15:10:50.955Z,6.42
2019-03-31T15:13:19.298Z,5.83
2019-03-31T15:15:48.367Z,6.30
2019-03-31T15:18:17.298Z,5.33
2019-03-31T15:20:45.318Z,5.60
2019-03-31T15:23:13.376Z,5.87
2019-03-31T15:25:43.313Z,5.50
2019-03-31T15:28:11.810Z,5.05
2019-03-31T15:30:39.818Z,5.67
2019-03-31T15:33:08.199Z,5.60
2019-03-31T15:35:37.899Z,6.65
2019-03-31T15:38:06.547Z,6.03
2019-03-31T15:40:35.741Z,6.90
2019-03-31T15:43:04.554Z,7.15
2019-03-31T15:45:32.785Z,6.05
2019-03-31T15:48:00.869Z,6.45
2019-03-31T15:50:30.112Z,6.25
2019-03-31T15:52:58.262Z,6.85
2019-03-31T15:55:28.432Z,6.97
2019-03-31T15:57:57.187Z,6.33
2019-03-31T16:00:25.729Z,8.88
2019-03-31T16:02:54.054Z,10.95
2019-03-31T16:05:22.519Z,10.85
2019-03-31T16:07:50.734Z,10.95
2019-03-31T16:10:18.441Z,11.12
2019-03-31T16:12:46.109Z,10.13
2019-03-31T16:15:14.573Z,10.38
2019-03-31T16:17:42.099Z,9.95
2019-03-31T16:20:10.337Z,9.43
2019-03-31T16:22:38.328Z,10.03
2019-03-31T16:25:12.031Z,9.20
2019-03-31T16:27:46.209Z,9.90
2019-03-31T16:30:16.844Z,10.20
2019-03-31T16:32:45.114Z,9.93
2019-03-31T16:35:13.570Z,11.75
2019-03-31T16:37:41.458Z,13.03
2019-03-31T16:40:09.267Z,13.18
2019-03-31T16:42:38.044Z,13.50
2019-03-31T16:45:06.854Z,13.20
2019-03-31T16:47:35.274Z,12.78
2019-03-31T16:50:04.392Z,14.05
2019-03-31T16:52:32.139Z,12.95
2019-03-31T16:55:00.970Z,13.85
2019-03-31T16:57:28.967Z,13.32
2019-03-31T16:59:56.458Z,16.12
2019-03-31T17:02:24.121Z,15.63
2019-03-31T17:04:52.766Z,15.78
2019-03-31T17:07:20.691Z,16.73
2019-03-31T17:09:51.579Z,17.37
2019-03-31T17:12:17.759Z,15.75
2019-03-31T17:14:51.646Z,16.15
2019-03-31T17:17:19.438Z,16.42
2019-03-31T17:19:47.039Z,16.82
2019-03-31T17:22:14.523Z,15.35
2019-03-31T17:24:42.511Z,16.67
2019-03-31T17:27:13.939Z,16.35
2019-03-31T17:29:40.619Z,16.62
2019-03-31T17:32:08.502Z,16.95
2019-03-31T17:34:36.151Z,16.10
2019-03-31T17:37:04.197Z,17.37
2019-03-31T17:39:32.056Z,15.23
2019-03-31T17:41:59.790Z,16.65
2019-03-31T17:44:27.762Z,17.70
2019-03-31T17:46:55.260Z,16.37
2019-03-31T17:49:23.178Z,16.48
2019-03-31T17:51:51.043Z,17.48
2019-03-31T17:54:18.552Z,18.73
2019-03-31T17:56:46.624Z,18.50
2019-03-31T17:59:14.574Z,19.82
2019-03-31T18:01:42.312Z,20.08
2019-03-31T18:04:10.190Z,20.17
2019-03-31T18:06:37.816Z,19.52
2019-03-31T18:09:07.534Z,19.27
2019-03-31T18:11:35.718Z,17.65
2019-03-31T18:14:06.709Z,18.95
2019-03-31T18:16:33.068Z,19.73
2019-03-31T18:19:01.390Z,19.90
2019-03-31T18:21:29.541Z,18.82
2019-03-31T18:23:57.160Z,19.52
2019-03-31T18:26:24.947Z,18.90
2019-03-31T18:28:53.051Z,19.55
2019-03-31T18:31:20.763Z,20.70
2019-03-31T18:33:48.659Z,21.40
2019-03-31T18:36:16.618Z,19.37
2019-03-31T18:38:44.173Z,19.65
2019-03-31T18:41:12.146Z,19.35
2019-03-31T18:43:50.767Z,20.35
2019-03-31T18:46:09.548Z,19.70
2019-03-31T18:48:37.769Z,20.27
2019-03-31T18:51:05.303Z,20.93
2019-03-31T18:53:52.385Z,17.73
2019-03-31T18:56:38.744Z,17.62
2019-03-31T18:59:17.003Z,17.15
2019-03-31T19:01:53.116Z,18.05
2019-03-31T19:04:40.256Z,17.65
2019-03-31T19:07:17.204Z,17.45
2019-03-31T19:09:51.663Z,16.25
2019-03-31T19:12:30.034Z,16.82
2019-03-31T19:15:16.047Z,16.17
2019-03-31T19:18:00.841Z,15.20
2019-03-31T19:20:51.296Z,14.68
2019-03-31T19:23:41.570Z,14.25
2019-03-31T19:26:31.754Z,14.30
2019-03-31T19:29:22.684Z,12.82
2019-03-31T19:32:08.855Z,11.78
2019-03-31T19:34:56.282Z,13.72
2019-03-31T19:37:55.751Z,12.50
2019-03-31T19:41:02.981Z,11.38
2019-03-31T19:43:29.711Z,10.82
2019-03-31T19:46:19.525Z,11.22
2019-03-31T19:49:07.019Z,10.13
2019-03-31T19:51:54.024Z,10.68
2019-03-31T19:54:31.595Z,9.83
2019-03-31T19:57:21.688Z,11.38
2019-03-31T20:00:07.627Z,10.45
2019-03-31T20:03:01.188Z,10.75
2019-03-31T20:05:51.639Z,9.65
2019-03-31T20:08:34.358Z,9.55
2019-03-31T20:11:09.490Z,9.50
2019-03-31T20:13:59.891Z,10.23
2019-03-31T20:16:34.200Z,9.98
2019-03-31T20:19:21.362Z,9.93
2019-03-31T20:22:14.374Z,10.13
2019-03-31T20:24:58.127Z,10.45
2019-03-31T20:27:50.326Z,9.95
2019-03-31T20:30:43.466Z,10.05
2019-03-31T20:33:29.138Z,9.25
2019-03-31T20:36:15.141Z,9.55
2019-03-31T20:39:00.806Z,10.53
2019-03-31T20:41:47.476Z,10.85
2019-03-31T20:44:15.027Z,9.18
2019-03-31T20:46:43.003Z,9.63
2019-03-31T20:49:10.455Z,9.73
2019-03-31T20:51:37.910Z,9.50
2019-03-31T20:54:05.454Z,9.58
2019-03-31T20:56:33.037Z,9.18
2019-03-31T20:59:00.584Z,8.65
2019-03-31T21:01:28.291Z,9.45
2019-03-31T21:03:56.175Z,8.85
2019-03-31T21:06:24.058Z,7.95
2019-03-31T21:08:51.991Z,8.80
2019-03-31T21:11:19.864Z,8.30
2019-03-31T21:13:48.153Z,8.48
2019-03-31T21:16:16.023Z,8.70
2019-03-31T21:18:43.782Z,8.53
2019-03-31T21:21:11.399Z,9.45
2019-03-31T21:23:39.004Z,8.85
2019-03-31T21:26:06.823Z,7.50
2019-03-31T21:28:34.380Z,8.15
2019-03-31T21:31:02.192Z,9.40
2019-03-31T21:33:29.676Z,8.85
2019-03-31T21:35:57.235Z,8.33
2019-03-31T21:38:25.770Z,8.00
2019-03-31T21:40:53.358Z,8.48
2019-03-31T21:43:21.265Z,7.97
2019-03-31T21:45:49.150Z,7.70
2019-03-31T21:48:16.719Z,7.60
2019-03-31T21:50:44.245Z,8.10
2019-03-31T21:53:11.878Z,8.75
2019-03-31T21:55:39.397Z,8.20
2019-03-31T21:58:06.989Z,7.97
2019-03-31T22:00:54.797Z,7.80
2019-03-31T22:03:22.752Z,8.13
2019-03-31T22:05:50.313Z,7.92
2019-03-31T22:08:18.880Z,7.87
2019-03-31T22:10:48.759Z,7.75
2019-03-31T22:13:16.334Z,8.58
2019-03-31T22:15:44.218Z,7.85
2019-03-31T22:18:11.738Z,7.53
2019-03-31T22:20:39.539Z,7.47
2019-03-31T22:23:07.414Z,7.22
2019-03-31T22:25:34.926Z,6.58
2019-03-31T22:28:02.381Z,7.97
2019-03-31T22:30:29.791Z,7.87
2019-03-31T22:32:57.477Z,8.13
2019-03-31T22:35:25.399Z,7.08
2019-03-31T22:37:53.070Z,6.92
2019-03-31T22:40:20.916Z,7.25
2019-03-31T22:42:48.789Z,7.40
2019-03-31T22:45:16.775Z,5.60
2019-03-31T22:47:44.307Z,5.78
2019-03-31T22:50:11.869Z,6.95
2019-03-31T22:52:40.159Z,7.28
2019-03-31T22:55:07.603Z,7.55
2019-03-31T22:57:35.203Z,6.12
2019-03-31T23:00:02.766Z,6.80
2019-03-31T23:02:30.377Z,7.33
2019-03-31T23:04:57.919Z,5.58
2019-03-31T23:07:25.761Z,7.08
2019-03-31T23:09:53.658Z,6.33
2019-03-31T23:12:21.160Z,7.25
2019-03-31T23:14:49.697Z,6.65
2019-03-31T23:17:17.140Z,6.22
2019-03-31T23:19:44.608Z,6.60
2019-03-31T23:22:12.182Z,5.58
2019-03-31T23:24:39.706Z,6.45
2019-03-31T23:27:07.321Z,6.70
2019-03-31T23:29:34.863Z,6.17
2019-03-31T23:32:02.671Z,5.50
2019-03-31T23:34:30.373Z,5.22
2019-03-31T23:36:57.832Z,6.55
2019-03-31T23:39:25.359Z,6.55
2019-03-31T23:41:54.031Z,5.65
2019-03-31T23:44:21.617Z,6.42
2019-03-31T23:46:49.508Z,7.10
2019-03-31T23:49:17.066Z,5.92
2019-03-31T23:51:44.693Z,6.67
2019-03-31T23:54:12.579Z,7.25
2019-03-31T23:56:40.486Z,6.80
2019-03-31T23:59:08.375Z,7.58
